sensor_id;sensor_type;location;lat;lon;timestamp;P1;durP1;ratioP1;P2;durP2;ratioP2
19260;SDS011;9764;48.114;11.670;2023-01-30T00:01:06;2.42;;;1.80;;
19260;SDS011;9764;48.114;11.670;2023-01-30T00:03:40;1.83;;;1.73;;
19260;SDS011;9764;48.114;11.670;2023-01-30T00:06:09;1.98;;;1.55;;
19260;SDS011;9764;48.114;11.670;2023-01-30T00:08:37;2.03;;;1.80;;
19260;SDS011;9764;48.114;11.670;2023-01-30T00:11:06;1.77;;;1.67;;
19260;SDS011;9764;48.114;11.670;2023-01-30T00:13:36;1.70;;;1.60;;
19260;SDS011;9764;48.114;11.670;2023-01-30T00:16:05;1.60;;;1.50;;
19260;SDS011;9764;48.114;11.670;2023-01-30T00:18:35;1.88;;;1.77;;
19260;SDS011;9764;48.114;11.670;2023-01-30T00:21:06;1.50;;;1.40;;
19260;SDS011;9764;48.114;11.670;2023-01-30T00:23:36;2.10;;;1.60;;
19260;SDS011;9764;48.114;11.670;2023-01-30T00:26:05;2.55;;;1.67;;
19260;SDS011;9764;48.114;11.670;2023-01-30T00:28:33;1.92;;;1.80;;
19260;SDS011;9764;48.114;11.670;2023-01-30T00:31:02;1.95;;;1.65;;
19260;SDS011;9764;48.114;11.670;2023-01-30T00:33:31;2.03;;;1.83;;
19260;SDS011;9764;48.114;11.670;2023-01-30T00:36:00;2.10;;;1.52;;
19260;SDS011;9764;48.114;11.670;2023-01-30T00:38:30;1.67;;;1.52;;
19260;SDS011;9764;48.114;11.670;2023-01-30T00:40:58;1.70;;;1.60;;
19260;SDS011;9764;48.114;11.670;2023-01-30T00:43:26;1.63;;;1.50;;
19260;SDS011;9764;48.114;11.670;2023-01-30T00:49:27;2.33;;;1.90;;
19260;SDS011;9764;48.114;11.670;2023-01-30T00:51:57;1.70;;;1.60;;
19260;SDS011;9764;48.114;11.670;2023-01-30T00:54:27;1.88;;;1.70;;
19260;SDS011;9764;48.114;11.670;2023-01-30T00:56:57;1.70;;;1.60;;
19260;SDS011;9764;48.114;11.670;2023-01-30T00:59:25;1.83;;;1.70;;
19260;SDS011;9764;48.114;11.670;2023-01-30T01:01:53;2.05;;;1.80;;
19260;SDS011;9764;48.114;11.670;2023-01-30T01:04:22;1.50;;;1.40;;
19260;SDS011;9764;48.114;11.670;2023-01-30T01:06:50;2.38;;;1.67;;
19260;SDS011;9764;48.114;11.670;2023-01-30T01:09:19;1.88;;;1.77;;
19260;SDS011;9764;48.114;11.670;2023-01-30T01:11:48;1.95;;;1.35;;
19260;SDS011;9764;48.114;11.670;2023-01-30T01:14:17;1.70;;;1.58;;
19260;SDS011;9764;48.114;11.670;2023-01-30T01:16:45;1.77;;;1.67;;
19260;SDS011;9764;48.114;11.670;2023-01-30T01:19:14;2.05;;;1.73;;
19260;SDS011;9764;48.114;11.670;2023-01-30T01:21:42;2.00;;;1.55;;
19260;SDS011;9764;48.114;11.670;2023-01-30T01:24:11;1.88;;;1.70;;
19260;SDS011;9764;48.114;11.670;2023-01-30T01:26:41;1.92;;;1.73;;
19260;SDS011;9764;48.114;11.670;2023-01-30T01:29:12;1.70;;;1.60;;
19260;SDS011;9764;48.114;11.670;2023-01-30T01:31:42;1.95;;;1.63;;
19260;SDS011;9764;48.114;11.670;2023-01-30T01:34:11;1.98;;;1.77;;
19260;SDS011;9764;48.114;11.670;2023-01-30T01:36:42;1.42;;;1.33;;
19260;SDS011;9764;48.114;11.670;2023-01-30T01:39:20;1.92;;;1.70;;
19260;SDS011;9764;48.114;11.670;2023-01-30T01:41:49;1.70;;;1.60;;
19260;SDS011;9764;48.114;11.670;2023-01-30T01:44:18;1.80;;;1.65;;
19260;SDS011;9764;48.114;11.670;2023-01-30T01:46:47;1.60;;;1.50;;
19260;SDS011;9764;48.114;11.670;2023-01-30T02:06:44;2.28;;;1.73;;
19260;SDS011;9764;48.114;11.670;2023-01-30T02:09:13;2.00;;;1.80;;
19260;SDS011;9764;48.114;11.670;2023-01-30T02:11:43;1.80;;;1.70;;
19260;SDS011;9764;48.114;11.670;2023-01-30T02:14:16;1.92;;;1.75;;
19260;SDS011;9764;48.114;11.670;2023-01-30T02:16:46;1.70;;;1.60;;
19260;SDS011;9764;48.114;11.670;2023-01-30T02:19:20;1.92;;;1.50;;
19260;SDS011;9764;48.114;11.670;2023-01-30T02:28:30;1.70;;;1.60;;
19260;SDS011;9764;48.114;11.670;2023-01-30T02:31:17;1.50;;;1.40;;
19260;SDS011;9764;48.114;11.670;2023-01-30T02:34:03;1.88;;;1.42;;
19260;SDS011;9764;48.114;11.670;2023-01-30T02:36:44;1.73;;;1.63;;
19260;SDS011;9764;48.114;11.670;2023-01-30T02:39:22;1.88;;;1.77;;
19260;SDS011;9764;48.114;11.670;2023-01-30T02:41:59;1.73;;;1.63;;
19260;SDS011;9764;48.114;11.670;2023-01-30T02:44:40;2.08;;;1.70;;
19260;SDS011;9764;48.114;11.670;2023-01-30T02:47:14;2.30;;;1.40;;
19260;SDS011;9764;48.114;11.670;2023-01-30T02:49:46;2.13;;;1.80;;
19260;SDS011;9764;48.114;11.670;2023-01-30T02:52:18;1.70;;;1.60;;
19260;SDS011;9764;48.114;11.670;2023-01-30T02:54:49;2.13;;;1.85;;
19260;SDS011;9764;48.114;11.670;2023-01-30T02:57:18;2.17;;;1.77;;
19260;SDS011;9764;48.114;11.670;2023-01-30T02:59:52;1.60;;;1.50;;
19260;SDS011;9764;48.114;11.670;2023-01-30T03:05:38;1.73;;;1.50;;
19260;SDS011;9764;48.114;11.670;2023-01-30T03:08:33;1.95;;;1.67;;
19260;SDS011;9764;48.114;11.670;2023-01-30T03:11:09;1.95;;;1.70;;
19260;SDS011;9764;48.114;11.670;2023-01-30T03:13:41;1.30;;;1.20;;
19260;SDS011;9764;48.114;11.670;2023-01-30T03:16:17;1.50;;;1.40;;
19260;SDS011;9764;48.114;11.670;2023-01-30T03:18:51;1.60;;;1.50;;
19260;SDS011;9764;48.114;11.670;2023-01-30T03:21:21;1.50;;;1.40;;
19260;SDS011;9764;48.114;11.670;2023-01-30T03:23:51;1.80;;;1.70;;
19260;SDS011;9764;48.114;11.670;2023-01-30T03:26:20;1.73;;;1.60;;
19260;SDS011;9764;48.114;11.670;2023-01-30T03:28:51;1.70;;;1.60;;
19260;SDS011;9764;48.114;11.670;2023-01-30T03:31:20;2.00;;;1.80;;
19260;SDS011;9764;48.114;11.670;2023-01-30T03:33:48;1.63;;;1.52;;
19260;SDS011;9764;48.114;11.670;2023-01-30T03:36:18;1.75;;;1.50;;
19260;SDS011;9764;48.114;11.670;2023-01-30T03:38:46;1.55;;;1.45;;
19260;SDS011;9764;48.114;11.670;2023-01-30T03:41:27;1.73;;;1.60;;
19260;SDS011;9764;48.114;11.670;2023-01-30T03:43:56;2.13;;;1.73;;
19260;SDS011;9764;48.114;11.670;2023-01-30T03:46:24;1.60;;;1.50;;
19260;SDS011;9764;48.114;11.670;2023-01-30T03:48:53;1.95;;;1.75;;
19260;SDS011;9764;48.114;11.670;2023-01-30T03:51:21;2.22;;;1.70;;
19260;SDS011;9764;48.114;11.670;2023-01-30T03:53:49;1.60;;;1.50;;
19260;SDS011;9764;48.114;11.670;2023-01-30T03:56:17;1.73;;;1.63;;
19260;SDS011;9764;48.114;11.670;2023-01-30T03:58:47;1.58;;;1.48;;
19260;SDS011;9764;48.114;11.670;2023-01-30T04:01:22;3.08;;;2.00;;
19260;SDS011;9764;48.114;11.670;2023-01-30T04:03:51;2.10;;;1.40;;
19260;SDS011;9764;48.114;11.670;2023-01-30T04:06:19;2.03;;;1.70;;
19260;SDS011;9764;48.114;11.670;2023-01-30T04:08:50;1.75;;;1.60;;
19260;SDS011;9764;48.114;11.670;2023-01-30T04:11:31;1.70;;;1.52;;
19260;SDS011;9764;48.114;11.670;2023-01-30T04:14:01;1.55;;;1.45;;
19260;SDS011;9764;48.114;11.670;2023-01-30T04:16:30;1.80;;;1.70;;
19260;SDS011;9764;48.114;11.670;2023-01-30T04:19:04;1.63;;;1.42;;
19260;SDS011;9764;48.114;11.670;2023-01-30T04:21:32;1.77;;;1.67;;
19260;SDS011;9764;48.114;11.670;2023-01-30T04:24:01;1.50;;;1.40;;
19260;SDS011;9764;48.114;11.670;2023-01-30T04:26:29;1.95;;;1.75;;
19260;SDS011;9764;48.114;11.670;2023-01-30T04:28:58;1.95;;;1.70;;
19260;SDS011;9764;48.114;11.670;2023-01-30T04:31:29;2.33;;;1.70;;
19260;SDS011;9764;48.114;11.670;2023-01-30T04:34:04;1.77;;;1.45;;
19260;SDS011;9764;48.114;11.670;2023-01-30T04:36:33;1.63;;;1.50;;
19260;SDS011;9764;48.114;11.670;2023-01-30T04:39:02;1.35;;;1.25;;
19260;SDS011;9764;48.114;11.670;2023-01-30T04:41:31;1.70;;;1.60;;
19260;SDS011;9764;48.114;11.670;2023-01-30T04:44:01;1.60;;;1.50;;
19260;SDS011;9764;48.114;11.670;2023-01-30T04:46:57;1.58;;;1.48;;
19260;SDS011;9764;48.114;11.670;2023-01-30T04:49:25;2.10;;;1.65;;
19260;SDS011;9764;48.114;11.670;2023-01-30T04:51:54;1.50;;;1.40;;
19260;SDS011;9764;48.114;11.670;2023-01-30T04:54:22;2.65;;;1.75;;
19260;SDS011;9764;48.114;11.670;2023-01-30T04:56:50;1.67;;;1.58;;
19260;SDS011;9764;48.114;11.670;2023-01-30T04:59:19;1.48;;;1.30;;
19260;SDS011;9764;48.114;11.670;2023-01-30T05:01:48;2.88;;;1.80;;
19260;SDS011;9764;48.114;11.670;2023-01-30T05:04:18;2.65;;;1.65;;
19260;SDS011;9764;48.114;11.670;2023-01-30T05:06:46;2.00;;;1.70;;
19260;SDS011;9764;48.114;11.670;2023-01-30T05:09:15;2.25;;;1.60;;
19260;SDS011;9764;48.114;11.670;2023-01-30T05:11:43;1.92;;;1.63;;
19260;SDS011;9764;48.114;11.670;2023-01-30T05:14:11;2.10;;;1.90;;
19260;SDS011;9764;48.114;11.670;2023-01-30T05:16:39;1.45;;;1.35;;
19260;SDS011;9764;48.114;11.670;2023-01-30T05:19:08;1.50;;;1.40;;
19260;SDS011;9764;48.114;11.670;2023-01-30T05:21:40;2.08;;;1.60;;
19260;SDS011;9764;48.114;11.670;2023-01-30T05:24:11;2.17;;;1.38;;
19260;SDS011;9764;48.114;11.670;2023-01-30T05:26:39;2.15;;;1.60;;
19260;SDS011;9764;48.114;11.670;2023-01-30T05:29:08;2.08;;;1.20;;
19260;SDS011;9764;48.114;11.670;2023-01-30T05:31:37;1.90;;;1.30;;
19260;SDS011;9764;48.114;11.670;2023-01-30T05:34:05;4.95;;;1.63;;
19260;SDS011;9764;48.114;11.670;2023-01-30T05:36:33;1.30;;;1.20;;
19260;SDS011;9764;48.114;11.670;2023-01-30T05:39:03;1.83;;;1.48;;
19260;SDS011;9764;48.114;11.670;2023-01-30T05:41:31;2.40;;;1.65;;
19260;SDS011;9764;48.114;11.670;2023-01-30T05:43:59;1.95;;;1.73;;
19260;SDS011;9764;48.114;11.670;2023-01-30T05:46:28;1.40;;;1.30;;
19260;SDS011;9764;48.114;11.670;2023-01-30T05:48:56;1.80;;;1.50;;
19260;SDS011;9764;48.114;11.670;2023-01-30T05:51:25;1.70;;;1.40;;
19260;SDS011;9764;48.114;11.670;2023-01-30T05:53:54;1.65;;;1.55;;
19260;SDS011;9764;48.114;11.670;2023-01-30T05:56:23;1.75;;;1.50;;
19260;SDS011;9764;48.114;11.670;2023-01-30T05:58:52;1.50;;;1.40;;
19260;SDS011;9764;48.114;11.670;2023-01-30T06:01:22;1.58;;;1.48;;
19260;SDS011;9764;48.114;11.670;2023-01-30T06:03:51;1.70;;;1.60;;
19260;SDS011;9764;48.114;11.670;2023-01-30T06:06:21;1.95;;;1.77;;
19260;SDS011;9764;48.114;11.670;2023-01-30T06:08:51;1.70;;;1.60;;
19260;SDS011;9764;48.114;11.670;2023-01-30T06:11:20;1.30;;;1.20;;
19260;SDS011;9764;48.114;11.670;2023-01-30T06:13:51;1.48;;;1.30;;
19260;SDS011;9764;48.114;11.670;2023-01-30T06:16:19;1.60;;;1.50;;
19260;SDS011;9764;48.114;11.670;2023-01-30T06:18:47;1.55;;;1.45;;
19260;SDS011;9764;48.114;11.670;2023-01-30T06:21:15;1.50;;;1.40;;
19260;SDS011;9764;48.114;11.670;2023-01-30T06:23:44;1.60;;;1.50;;
19260;SDS011;9764;48.114;11.670;2023-01-30T06:26:13;1.67;;;1.50;;
19260;SDS011;9764;48.114;11.670;2023-01-30T06:28:41;2.22;;;1.60;;
19260;SDS011;9764;48.114;11.670;2023-01-30T06:31:11;1.70;;;1.60;;
19260;SDS011;9764;48.114;11.670;2023-01-30T06:33:39;1.98;;;1.77;;
19260;SDS011;9764;48.114;11.670;2023-01-30T06:36:09;1.45;;;1.30;;
19260;SDS011;9764;48.114;11.670;2023-01-30T06:38:37;1.58;;;1.48;;
19260;SDS011;9764;48.114;11.670;2023-01-30T06:41:05;1.50;;;1.40;;
19260;SDS011;9764;48.114;11.670;2023-01-30T06:43:34;1.75;;;1.35;;
19260;SDS011;9764;48.114;11.670;2023-01-30T06:46:02;1.50;;;1.40;;
19260;SDS011;9764;48.114;11.670;2023-01-30T06:48:32;1.60;;;1.50;;
19260;SDS011;9764;48.114;11.670;2023-01-30T06:51:00;1.40;;;1.30;;
19260;SDS011;9764;48.114;11.670;2023-01-30T06:53:28;2.90;;;1.38;;
19260;SDS011;9764;48.114;11.670;2023-01-30T06:55:56;1.55;;;1.30;;
19260;SDS011;9764;48.114;11.670;2023-01-30T06:58:25;1.63;;;1.52;;
19260;SDS011;9764;48.114;11.670;2023-01-30T07:00:53;1.70;;;1.45;;
19260;SDS011;9764;48.114;11.670;2023-01-30T07:03:22;1.60;;;1.38;;
19260;SDS011;9764;48.114;11.670;2023-01-30T07:05:51;1.40;;;1.30;;
19260;SDS011;9764;48.114;11.670;2023-01-30T07:08:20;1.50;;;1.40;;
19260;SDS011;9764;48.114;11.670;2023-01-30T07:10:50;1.50;;;1.40;;
19260;SDS011;9764;48.114;11.670;2023-01-30T07:13:18;1.63;;;1.25;;
19260;SDS011;9764;48.114;11.670;2023-01-30T07:15:46;1.55;;;1.30;;
19260;SDS011;9764;48.114;11.670;2023-01-30T07:18:14;1.63;;;1.52;;
19260;SDS011;9764;48.114;11.670;2023-01-30T07:20:45;1.70;;;1.60;;
19260;SDS011;9764;48.114;11.670;2023-01-30T07:23:15;1.40;;;1.30;;
19260;SDS011;9764;48.114;11.670;2023-01-30T07:25:44;1.63;;;1.25;;
19260;SDS011;9764;48.114;11.670;2023-01-30T07:28:12;1.40;;;1.30;;
19260;SDS011;9764;48.114;11.670;2023-01-30T07:30:40;1.50;;;1.40;;
19260;SDS011;9764;48.114;11.670;2023-01-30T07:33:09;1.58;;;1.48;;
19260;SDS011;9764;48.114;11.670;2023-01-30T07:35:37;1.33;;;1.23;;
19260;SDS011;9764;48.114;11.670;2023-01-30T07:38:05;1.10;;;1.10;;
19260;SDS011;9764;48.114;11.670;2023-01-30T07:40:35;1.30;;;1.20;;
19260;SDS011;9764;48.114;11.670;2023-01-30T07:43:04;1.50;;;1.40;;
19260;SDS011;9764;48.114;11.670;2023-01-30T07:45:34;1.98;;;1.30;;
19260;SDS011;9764;48.114;11.670;2023-01-30T07:48:04;1.38;;;1.20;;
19260;SDS011;9764;48.114;11.670;2023-01-30T07:50:33;1.30;;;1.20;;
19260;SDS011;9764;48.114;11.670;2023-01-30T07:53:02;1.58;;;1.48;;
19260;SDS011;9764;48.114;11.670;2023-01-30T07:55:31;1.50;;;1.40;;
19260;SDS011;9764;48.114;11.670;2023-01-30T07:58:01;1.38;;;1.27;;
19260;SDS011;9764;48.114;11.670;2023-01-30T08:00:30;1.48;;;1.38;;
19260;SDS011;9764;48.114;11.670;2023-01-30T08:02:58;1.40;;;1.30;;
19260;SDS011;9764;48.114;11.670;2023-01-30T08:05:27;1.50;;;1.40;;
19260;SDS011;9764;48.114;11.670;2023-01-30T08:07:55;1.20;;;1.15;;
19260;SDS011;9764;48.114;11.670;2023-01-30T08:10:24;2.15;;;1.17;;
19260;SDS011;9764;48.114;11.670;2023-01-30T08:12:52;1.45;;;1.35;;
19260;SDS011;9764;48.114;11.670;2023-01-30T08:15:21;1.38;;;1.27;;
19260;SDS011;9764;48.114;11.670;2023-01-30T08:17:52;1.40;;;1.30;;
19260;SDS011;9764;48.114;11.670;2023-01-30T08:20:21;1.38;;;1.27;;
19260;SDS011;9764;48.114;11.670;2023-01-30T08:22:50;1.05;;;1.05;;
19260;SDS011;9764;48.114;11.670;2023-01-30T08:25:18;1.45;;;1.35;;
19260;SDS011;9764;48.114;11.670;2023-01-30T08:27:46;1.20;;;1.10;;
19260;SDS011;9764;48.114;11.670;2023-01-30T08:30:15;1.35;;;1.25;;
19260;SDS011;9764;48.114;11.670;2023-01-30T08:32:46;1.00;;;1.00;;
19260;SDS011;9764;48.114;11.670;2023-01-30T08:35:14;1.60;;;1.50;;
19260;SDS011;9764;48.114;11.670;2023-01-30T08:37:43;1.58;;;1.20;;
19260;SDS011;9764;48.114;11.670;2023-01-30T08:40:12;1.30;;;1.20;;
19260;SDS011;9764;48.114;11.670;2023-01-30T08:42:42;1.40;;;1.30;;
19260;SDS011;9764;48.114;11.670;2023-01-30T08:45:11;1.48;;;1.38;;
19260;SDS011;9764;48.114;11.670;2023-01-30T08:47:39;1.10;;;1.10;;
19260;SDS011;9764;48.114;11.670;2023-01-30T08:50:09;1.25;;;1.15;;
19260;SDS011;9764;48.114;11.670;2023-01-30T08:52:38;1.50;;;1.40;;
19260;SDS011;9764;48.114;11.670;2023-01-30T08:55:07;1.40;;;1.05;;
19260;SDS011;9764;48.114;11.670;2023-01-30T08:57:35;1.50;;;1.40;;
19260;SDS011;9764;48.114;11.670;2023-01-30T09:00:04;1.25;;;1.20;;
19260;SDS011;9764;48.114;11.670;2023-01-30T09:02:34;2.08;;;1.30;;
19260;SDS011;9764;48.114;11.670;2023-01-30T09:05:03;1.10;;;1.00;;
19260;SDS011;9764;48.114;11.670;2023-01-30T09:07:33;1.27;;;1.17;;
19260;SDS011;9764;48.114;11.670;2023-01-30T09:10:02;0.90;;;0.90;;
19260;SDS011;9764;48.114;11.670;2023-01-30T09:12:30;2.42;;;1.45;;
19260;SDS011;9764;48.114;11.670;2023-01-30T09:14:59;1.63;;;1.30;;
19260;SDS011;9764;48.114;11.670;2023-01-30T09:17:27;1.48;;;1.30;;
19260;SDS011;9764;48.114;11.670;2023-01-30T09:19:55;1.15;;;1.05;;
19260;SDS011;9764;48.114;11.670;2023-01-30T09:22:24;1.65;;;1.20;;
19260;SDS011;9764;48.114;11.670;2023-01-30T09:24:53;1.38;;;1.27;;
19260;SDS011;9764;48.114;11.670;2023-01-30T09:27:22;1.25;;;1.15;;
19260;SDS011;9764;48.114;11.670;2023-01-30T09:29:50;1.52;;;1.13;;
19260;SDS011;9764;48.114;11.670;2023-01-30T09:32:18;1.30;;;1.20;;
19260;SDS011;9764;48.114;11.670;2023-01-30T09:34:46;1.48;;;1.38;;
19260;SDS011;9764;48.114;11.670;2023-01-30T09:37:15;1.52;;;1.10;;
19260;SDS011;9764;48.114;11.670;2023-01-30T09:39:43;1.33;;;1.10;;
19260;SDS011;9764;48.114;11.670;2023-01-30T09:42:23;1.90;;;1.33;;
19260;SDS011;9764;48.114;11.670;2023-01-30T09:45:18;1.08;;;0.98;;
19260;SDS011;9764;48.114;11.670;2023-01-30T09:48:02;1.85;;;1.38;;
19260;SDS011;9764;48.114;11.670;2023-01-30T09:53:43;1.63;;;1.20;;
19260;SDS011;9764;48.114;11.670;2023-01-30T09:56:22;1.40;;;1.30;;
19260;SDS011;9764;48.114;11.670;2023-01-30T09:58:53;0.90;;;0.90;;
19260;SDS011;9764;48.114;11.670;2023-01-30T10:01:24;1.15;;;1.02;;
19260;SDS011;9764;48.114;11.670;2023-01-30T10:04:01;0.93;;;0.93;;
19260;SDS011;9764;48.114;11.670;2023-01-30T10:06:39;1.55;;;1.33;;
19260;SDS011;9764;48.114;11.670;2023-01-30T10:09:15;1.48;;;1.10;;
19260;SDS011;9764;48.114;11.670;2023-01-30T10:12:00;1.08;;;0.93;;
19260;SDS011;9764;48.114;11.670;2023-01-30T10:14:43;1.08;;;1.00;;
19260;SDS011;9764;48.114;11.670;2023-01-30T10:17:22;1.10;;;1.00;;
19260;SDS011;9764;48.114;11.670;2023-01-30T10:20:02;2.15;;;1.15;;
19260;SDS011;9764;48.114;11.670;2023-01-30T10:22:44;0.80;;;0.80;;
19260;SDS011;9764;48.114;11.670;2023-01-30T10:25:24;2.60;;;1.00;;
19260;SDS011;9764;48.114;11.670;2023-01-30T10:27:58;0.95;;;0.95;;
19260;SDS011;9764;48.114;11.670;2023-01-30T10:30:32;0.90;;;0.90;;
19260;SDS011;9764;48.114;11.670;2023-01-30T10:33:01;1.05;;;0.95;;
19260;SDS011;9764;48.114;11.670;2023-01-30T10:35:33;1.17;;;1.08;;
19260;SDS011;9764;48.114;11.670;2023-01-30T10:38:06;1.45;;;1.10;;
19260;SDS011;9764;48.114;11.670;2023-01-30T10:40:43;0.95;;;0.95;;
19260;SDS011;9764;48.114;11.670;2023-01-30T10:43:19;0.93;;;0.90;;
19260;SDS011;9764;48.114;11.670;2023-01-30T10:45:55;0.90;;;0.90;;
19260;SDS011;9764;48.114;11.670;2023-01-30T10:48:39;0.90;;;0.90;;
19260;SDS011;9764;48.114;11.670;2023-01-30T10:51:21;0.88;;;0.88;;
19260;SDS011;9764;48.114;11.670;2023-01-30T10:53:57;1.17;;;1.08;;
19260;SDS011;9764;48.114;11.670;2023-01-30T10:56:32;0.93;;;0.93;;
19260;SDS011;9764;48.114;11.670;2023-01-30T10:59:10;1.08;;;0.98;;
19260;SDS011;9764;48.114;11.670;2023-01-30T11:01:51;1.10;;;1.00;;
19260;SDS011;9764;48.114;11.670;2023-01-30T11:04:28;1.00;;;0.88;;
19260;SDS011;9764;48.114;11.670;2023-01-30T11:06:59;0.80;;;0.80;;
19260;SDS011;9764;48.114;11.670;2023-01-30T11:09:41;0.90;;;0.90;;
19260;SDS011;9764;48.114;11.670;2023-01-30T11:12:11;0.90;;;0.90;;
19260;SDS011;9764;48.114;11.670;2023-01-30T11:14:50;1.00;;;0.85;;
19260;SDS011;9764;48.114;11.670;2023-01-30T11:17:27;0.95;;;0.70;;
19260;SDS011;9764;48.114;11.670;2023-01-30T11:20:00;0.95;;;0.95;;
19260;SDS011;9764;48.114;11.670;2023-01-30T11:22:34;1.00;;;0.90;;
19260;SDS011;9764;48.114;11.670;2023-01-30T11:25:04;0.88;;;0.88;;
19260;SDS011;9764;48.114;11.670;2023-01-30T11:27:41;0.77;;;0.70;;
19260;SDS011;9764;48.114;11.670;2023-01-30T11:30:12;0.85;;;0.85;;
19260;SDS011;9764;48.114;11.670;2023-01-30T11:32:44;0.70;;;0.70;;
19260;SDS011;9764;48.114;11.670;2023-01-30T11:35:19;1.90;;;0.90;;
19260;SDS011;9764;48.114;11.670;2023-01-30T11:37:51;0.80;;;0.80;;
19260;SDS011;9764;48.114;11.670;2023-01-30T11:40:25;0.70;;;0.70;;
19260;SDS011;9764;48.114;11.670;2023-01-30T11:43:01;0.77;;;0.77;;
19260;SDS011;9764;48.114;11.670;2023-01-30T11:45:35;0.80;;;0.80;;
19260;SDS011;9764;48.114;11.670;2023-01-30T11:48:10;0.95;;;0.90;;
19260;SDS011;9764;48.114;11.670;2023-01-30T11:50:59;0.90;;;0.80;;
19260;SDS011;9764;48.114;11.670;2023-01-30T11:53:32;1.25;;;1.00;;
19260;SDS011;9764;48.114;11.670;2023-01-30T11:56:04;0.98;;;0.88;;
19260;SDS011;9764;48.114;11.670;2023-01-30T11:58:38;0.88;;;0.88;;
19260;SDS011;9764;48.114;11.670;2023-01-30T12:01:11;0.70;;;0.70;;
19260;SDS011;9764;48.114;11.670;2023-01-30T12:03:47;1.10;;;1.00;;
19260;SDS011;9764;48.114;11.670;2023-01-30T12:06:24;0.95;;;0.88;;
19260;SDS011;9764;48.114;11.670;2023-01-30T12:08:57;0.70;;;0.70;;
19260;SDS011;9764;48.114;11.670;2023-01-30T12:11:26;0.70;;;0.70;;
19260;SDS011;9764;48.114;11.670;2023-01-30T12:14:07;0.70;;;0.70;;
19260;SDS011;9764;48.114;11.670;2023-01-30T12:16:50;0.88;;;0.88;;
19260;SDS011;9764;48.114;11.670;2023-01-30T12:19:38;0.80;;;0.80;;
19260;SDS011;9764;48.114;11.670;2023-01-30T12:22:17;1.58;;;1.00;;
19260;SDS011;9764;48.114;11.670;2023-01-30T12:24:51;0.73;;;0.73;;
19260;SDS011;9764;48.114;11.670;2023-01-30T12:27:40;1.85;;;0.90;;
19260;SDS011;9764;48.114;11.670;2023-01-30T12:30:20;0.70;;;0.70;;
19260;SDS011;9764;48.114;11.670;2023-01-30T12:32:53;0.82;;;0.82;;
19260;SDS011;9764;48.114;11.670;2023-01-30T12:35:28;0.70;;;0.70;;
19260;SDS011;9764;48.114;11.670;2023-01-30T12:38:11;0.80;;;0.80;;
19260;SDS011;9764;48.114;11.670;2023-01-30T12:40:53;0.70;;;0.70;;
19260;SDS011;9764;48.114;11.670;2023-01-30T12:43:39;2.50;;;0.70;;
19260;SDS011;9764;48.114;11.670;2023-01-30T12:46:28;1.08;;;0.85;;
19260;SDS011;9764;48.114;11.670;2023-01-30T12:49:15;0.95;;;0.80;;
19260;SDS011;9764;48.114;11.670;2023-01-30T12:52:09;0.82;;;0.80;;
19260;SDS011;9764;48.114;11.670;2023-01-30T12:54:52;0.60;;;0.60;;
19260;SDS011;9764;48.114;11.670;2023-01-30T12:57:27;0.77;;;0.73;;
19260;SDS011;9764;48.114;11.670;2023-01-30T13:00:05;0.85;;;0.85;;
19260;SDS011;9764;48.114;11.670;2023-01-30T13:02:51;0.75;;;0.73;;
19260;SDS011;9764;48.114;11.670;2023-01-30T13:05:31;0.70;;;0.70;;
19260;SDS011;9764;48.114;11.670;2023-01-30T13:08:11;0.95;;;0.95;;
19260;SDS011;9764;48.114;11.670;2023-01-30T13:10:51;0.80;;;0.80;;
19260;SDS011;9764;48.114;11.670;2023-01-30T13:13:30;0.80;;;0.80;;
19260;SDS011;9764;48.114;11.670;2023-01-30T13:16:05;0.75;;;0.75;;
19260;SDS011;9764;48.114;11.670;2023-01-30T13:18:41;0.90;;;0.90;;
19260;SDS011;9764;48.114;11.670;2023-01-30T13:21:16;0.98;;;0.98;;
19260;SDS011;9764;48.114;11.670;2023-01-30T13:23:54;0.70;;;0.70;;
19260;SDS011;9764;48.114;11.670;2023-01-30T13:26:35;1.20;;;0.80;;
19260;SDS011;9764;48.114;11.670;2023-01-30T13:29:12;0.70;;;0.70;;
19260;SDS011;9764;48.114;11.670;2023-01-30T13:31:45;0.80;;;0.80;;
19260;SDS011;9764;48.114;11.670;2023-01-30T13:34:19;0.75;;;0.75;;
19260;SDS011;9764;48.114;11.670;2023-01-30T13:36:52;0.70;;;0.70;;
19260;SDS011;9764;48.114;11.670;2023-01-30T13:39:29;0.82;;;0.82;;
19260;SDS011;9764;48.114;11.670;2023-01-30T13:42:09;0.70;;;0.70;;
19260;SDS011;9764;48.114;11.670;2023-01-30T13:44:44;0.80;;;0.77;;
19260;SDS011;9764;48.114;11.670;2023-01-30T13:47:19;0.70;;;0.70;;
19260;SDS011;9764;48.114;11.670;2023-01-30T13:49:56;0.80;;;0.80;;
19260;SDS011;9764;48.114;11.670;2023-01-30T13:52:33;0.70;;;0.70;;
19260;SDS011;9764;48.114;11.670;2023-01-30T13:55:11;0.77;;;0.77;;
19260;SDS011;9764;48.114;11.670;2023-01-30T13:57:52;0.75;;;0.75;;
19260;SDS011;9764;48.114;11.670;2023-01-30T14:00:27;0.80;;;0.80;;
19260;SDS011;9764;48.114;11.670;2023-01-30T14:03:14;0.70;;;0.70;;
19260;SDS011;9764;48.114;11.670;2023-01-30T14:06:09;0.80;;;0.80;;
19260;SDS011;9764;48.114;11.670;2023-01-30T14:09:00;0.75;;;0.75;;
19260;SDS011;9764;48.114;11.670;2023-01-30T14:11:34;0.65;;;0.65;;
19260;SDS011;9764;48.114;11.670;2023-01-30T14:14:08;0.70;;;0.70;;
19260;SDS011;9764;48.114;11.670;2023-01-30T14:16:52;1.00;;;1.00;;
19260;SDS011;9764;48.114;11.670;2023-01-30T14:19:32;1.00;;;0.85;;
19260;SDS011;9764;48.114;11.670;2023-01-30T14:22:17;0.77;;;0.70;;
19260;SDS011;9764;48.114;11.670;2023-01-30T14:37:25;0.70;;;0.70;;
19260;SDS011;9764;48.114;11.670;2023-01-30T14:40:34;0.63;;;0.63;;
19260;SDS011;9764;48.114;11.670;2023-01-30T14:49:25;0.60;;;0.60;;
19260;SDS011;9764;48.114;11.670;2023-01-30T14:51:55;0.68;;;0.68;;
19260;SDS011;9764;48.114;11.670;2023-01-30T14:54:27;0.98;;;0.80;;
19260;SDS011;9764;48.114;11.670;2023-01-30T14:59:59;0.70;;;0.70;;
19260;SDS011;9764;48.114;11.670;2023-01-30T15:02:48;0.60;;;0.60;;
19260;SDS011;9764;48.114;11.670;2023-01-30T15:05:24;0.68;;;0.68;;
19260;SDS011;9764;48.114;11.670;2023-01-30T15:07:58;2.13;;;0.80;;
19260;SDS011;9764;48.114;11.670;2023-01-30T15:10:36;0.73;;;0.73;;
19260;SDS011;9764;48.114;11.670;2023-01-30T15:13:19;0.70;;;0.70;;
19260;SDS011;9764;48.114;11.670;2023-01-30T15:16:12;0.80;;;0.80;;
19260;SDS011;9764;48.114;11.670;2023-01-30T15:18:58;0.80;;;0.60;;
19260;SDS011;9764;48.114;11.670;2023-01-30T15:21:50;0.57;;;0.57;;
19260;SDS011;9764;48.114;11.670;2023-01-30T15:24:37;0.60;;;0.60;;
19260;SDS011;9764;48.114;11.670;2023-01-30T15:27:26;0.95;;;0.88;;
19260;SDS011;9764;48.114;11.670;2023-01-30T15:30:13;0.77;;;0.70;;
19260;SDS011;9764;48.114;11.670;2023-01-30T15:32:47;0.70;;;0.70;;
19260;SDS011;9764;48.114;11.670;2023-01-30T15:35:20;0.70;;;0.70;;
19260;SDS011;9764;48.114;11.670;2023-01-30T15:37:52;0.80;;;0.77;;
19260;SDS011;9764;48.114;11.670;2023-01-30T15:40:23;3.85;;;1.15;;
19260;SDS011;9764;48.114;11.670;2023-01-30T15:42:55;0.60;;;0.60;;
19260;SDS011;9764;48.114;11.670;2023-01-30T15:45:38;2.38;;;0.90;;
19260;SDS011;9764;48.114;11.670;2023-01-30T15:48:19;0.70;;;0.70;;
19260;SDS011;9764;48.114;11.670;2023-01-30T15:51:03;0.80;;;0.80;;
19260;SDS011;9764;48.114;11.670;2023-01-30T15:53:34;1.00;;;0.80;;
19260;SDS011;9764;48.114;11.670;2023-01-30T15:56:08;0.80;;;0.80;;
19260;SDS011;9764;48.114;11.670;2023-01-30T15:58:41;0.70;;;0.70;;
19260;SDS011;9764;48.114;11.670;2023-01-30T16:01:11;0.77;;;0.77;;
19260;SDS011;9764;48.114;11.670;2023-01-30T16:03:45;0.95;;;0.90;;
19260;SDS011;9764;48.114;11.670;2023-01-30T16:06:23;1.05;;;0.95;;
19260;SDS011;9764;48.114;11.670;2023-01-30T16:08:58;0.73;;;0.73;;
19260;SDS011;9764;48.114;11.670;2023-01-30T16:11:31;0.80;;;0.80;;
19260;SDS011;9764;48.114;11.670;2023-01-30T16:14:05;3.25;;;0.93;;
19260;SDS011;9764;48.114;11.670;2023-01-30T16:16:38;0.93;;;0.80;;
19260;SDS011;9764;48.114;11.670;2023-01-30T16:19:12;0.82;;;0.80;;